sensor_id;sensor_type;location;lat;lon;timestamp;temperature;humidity
59973;DHT22;55298;-36.624;-64.282;2023-04-25T00:00:34;18.60;78.30
59973;DHT22;55298;-36.624;-64.282;2023-04-25T00:03:02;18.50;78.40
59973;DHT22;55298;-36.624;-64.282;2023-04-25T00:05:32;18.50;78.10
59973;DHT22;55298;-36.624;-64.282;2023-04-25T00:08:00;18.50;78.20
59973;DHT22;55298;-36.624;-64.282;2023-04-25T00:10:28;18.50;78.30
59973;DHT22;55298;-36.624;-64.282;2023-04-25T00:12:56;18.40;78.10
59973;DHT22;55298;-36.624;-64.282;2023-04-25T00:15:24;18.40;78.70
59973;DHT22;55298;-36.624;-64.282;2023-04-25T00:17:52;18.40;78.60
59973;DHT22;55298;-36.624;-64.282;2023-04-25T00:20:20;18.30;78.60
59973;DHT22;55298;-36.624;-64.282;2023-04-25T00:22:50;18.30;78.60
59973;DHT22;55298;-36.624;-64.282;2023-04-25T00:25:20;18.30;78.40
59973;DHT22;55298;-36.624;-64.282;2023-04-25T00:27:47;18.40;78.60
59973;DHT22;55298;-36.624;-64.282;2023-04-25T00:30:15;18.20;78.60
59973;DHT22;55298;-36.624;-64.282;2023-04-25T00:32:43;18.10;78.50
59973;DHT22;55298;-36.624;-64.282;2023-04-25T00:35:15;18.10;79.30
59973;DHT22;55298;-36.624;-64.282;2023-04-25T00:37:43;18.10;79.50
59973;DHT22;55298;-36.624;-64.282;2023-04-25T00:40:11;18.00;79.60
59973;DHT22;55298;-36.624;-64.282;2023-04-25T00:42:40;18.10;79.90
59973;DHT22;55298;-36.624;-64.282;2023-04-25T00:45:10;17.90;80.00
59973;DHT22;55298;-36.624;-64.282;2023-04-25T00:47:41;17.90;80.20
59973;DHT22;55298;-36.624;-64.282;2023-04-25T00:50:10;17.80;80.30
59973;DHT22;55298;-36.624;-64.282;2023-04-25T00:52:41;17.80;80.70
59973;DHT22;55298;-36.624;-64.282;2023-04-25T00:55:11;17.70;80.80
59973;DHT22;55298;-36.624;-64.282;2023-04-25T00:57:39;17.60;80.90
59973;DHT22;55298;-36.624;-64.282;2023-04-25T01:00:08;17.60;81.10
59973;DHT22;55298;-36.624;-64.282;2023-04-25T01:02:40;17.60;81.20
59973;DHT22;55298;-36.624;-64.282;2023-04-25T01:05:09;17.40;81.40
59973;DHT22;55298;-36.624;-64.282;2023-04-25T01:07:39;17.40;81.50
59973;DHT22;55298;-36.624;-64.282;2023-04-25T01:10:07;17.40;81.70
59973;DHT22;55298;-36.624;-64.282;2023-04-25T01:12:35;17.40;81.20
59973;DHT22;55298;-36.624;-64.282;2023-04-25T01:15:04;17.30;81.90
59973;DHT22;55298;-36.624;-64.282;2023-04-25T01:17:32;17.30;81.90
59973;DHT22;55298;-36.624;-64.282;2023-04-25T01:20:04;17.30;82.20
59973;DHT22;55298;-36.624;-64.282;2023-04-25T01:22:34;17.20;82.40
59973;DHT22;55298;-36.624;-64.282;2023-04-25T01:25:02;17.20;82.70
59973;DHT22;55298;-36.624;-64.282;2023-04-25T01:27:30;17.10;82.60
59973;DHT22;55298;-36.624;-64.282;2023-04-25T01:29:58;17.20;83.00
59973;DHT22;55298;-36.624;-64.282;2023-04-25T01:32:27;17.10;83.30
59973;DHT22;55298;-36.624;-64.282;2023-04-25T01:34:55;17.00;83.00
59973;DHT22;55298;-36.624;-64.282;2023-04-25T01:37:23;17.00;83.20
59973;DHT22;55298;-36.624;-64.282;2023-04-25T01:39:51;16.90;83.30
59973;DHT22;55298;-36.624;-64.282;2023-04-25T01:42:20;16.90;83.20
59973;DHT22;55298;-36.624;-64.282;2023-04-25T01:44:48;16.90;83.90
59973;DHT22;55298;-36.624;-64.282;2023-04-25T01:47:16;16.80;84.10
59973;DHT22;55298;-36.624;-64.282;2023-04-25T01:49:43;16.80;84.30
59973;DHT22;55298;-36.624;-64.282;2023-04-25T01:52:11;16.80;84.40
59973;DHT22;55298;-36.624;-64.282;2023-04-25T01:54:40;16.80;84.90
59973;DHT22;55298;-36.624;-64.282;2023-04-25T01:57:11;16.80;84.60
59973;DHT22;55298;-36.624;-64.282;2023-04-25T01:59:39;16.80;84.40
59973;DHT22;55298;-36.624;-64.282;2023-04-25T02:02:08;16.70;84.40
59973;DHT22;55298;-36.624;-64.282;2023-04-25T02:04:35;16.70;84.50
59973;DHT22;55298;-36.624;-64.282;2023-04-25T02:07:04;16.70;84.80
59973;DHT22;55298;-36.624;-64.282;2023-04-25T02:09:32;16.60;84.70
59973;DHT22;55298;-36.624;-64.282;2023-04-25T02:11:59;16.60;85.30
59973;DHT22;55298;-36.624;-64.282;2023-04-25T02:14:28;16.60;85.30
59973;DHT22;55298;-36.624;-64.282;2023-04-25T02:16:56;16.50;86.10
59973;DHT22;55298;-36.624;-64.282;2023-04-25T02:19:25;16.50;86.90
59973;DHT22;55298;-36.624;-64.282;2023-04-25T02:21:53;16.40;87.10
59973;DHT22;55298;-36.624;-64.282;2023-04-25T02:24:21;16.40;86.90
59973;DHT22;55298;-36.624;-64.282;2023-04-25T02:26:49;16.40;86.80
59973;DHT22;55298;-36.624;-64.282;2023-04-25T02:29:19;16.40;87.20
59973;DHT22;55298;-36.624;-64.282;2023-04-25T02:31:47;16.30;87.40
59973;DHT22;55298;-36.624;-64.282;2023-04-25T02:34:15;16.20;87.90
59973;DHT22;55298;-36.624;-64.282;2023-04-25T02:36:43;16.20;88.60
59973;DHT22;55298;-36.624;-64.282;2023-04-25T02:39:10;16.10;88.30
59973;DHT22;55298;-36.624;-64.282;2023-04-25T02:41:39;16.10;88.50
59973;DHT22;55298;-36.624;-64.282;2023-04-25T02:44:07;16.00;88.40
59973;DHT22;55298;-36.624;-64.282;2023-04-25T02:46:35;16.00;89.20
59973;DHT22;55298;-36.624;-64.282;2023-04-25T02:49:02;15.80;89.60
59973;DHT22;55298;-36.624;-64.282;2023-04-25T02:51:30;15.90;90.20
59973;DHT22;55298;-36.624;-64.282;2023-04-25T02:53:58;15.90;90.00
59973;DHT22;55298;-36.624;-64.282;2023-04-25T02:56:26;15.80;90.30
59973;DHT22;55298;-36.624;-64.282;2023-04-25T02:58:54;15.80;90.30
59973;DHT22;55298;-36.624;-64.282;2023-04-25T03:01:22;15.80;90.50
59973;DHT22;55298;-36.624;-64.282;2023-04-25T03:03:50;15.70;90.50
59973;DHT22;55298;-36.624;-64.282;2023-04-25T03:06:18;15.70;90.60
59973;DHT22;55298;-36.624;-64.282;2023-04-25T03:08:46;15.80;90.60
59973;DHT22;55298;-36.624;-64.282;2023-04-25T03:11:13;15.70;90.30
59973;DHT22;55298;-36.624;-64.282;2023-04-25T03:13:41;15.70;90.60
59973;DHT22;55298;-36.624;-64.282;2023-04-25T03:16:11;15.70;90.40
59973;DHT22;55298;-36.624;-64.282;2023-04-25T03:18:40;15.60;90.70
59973;DHT22;55298;-36.624;-64.282;2023-04-25T03:21:08;15.70;90.40
59973;DHT22;55298;-36.624;-64.282;2023-04-25T03:23:36;15.70;90.30
59973;DHT22;55298;-36.624;-64.282;2023-04-25T03:26:04;15.70;90.30
59973;DHT22;55298;-36.624;-64.282;2023-04-25T03:28:32;15.70;90.60
59973;DHT22;55298;-36.624;-64.282;2023-04-25T03:31:00;15.70;90.70
59973;DHT22;55298;-36.624;-64.282;2023-04-25T03:33:28;15.70;91.00
59973;DHT22;55298;-36.624;-64.282;2023-04-25T03:35:55;15.70;90.50
59973;DHT22;55298;-36.624;-64.282;2023-04-25T03:38:23;15.70;90.70
59973;DHT22;55298;-36.624;-64.282;2023-04-25T03:40:53;15.70;90.80
59973;DHT22;55298;-36.624;-64.282;2023-04-25T03:43:22;15.70;90.80
59973;DHT22;55298;-36.624;-64.282;2023-04-25T03:45:50;15.60;91.00
59973;DHT22;55298;-36.624;-64.282;2023-04-25T03:48:18;15.60;91.30
59973;DHT22;55298;-36.624;-64.282;2023-04-25T03:50:48;15.60;91.60
59973;DHT22;55298;-36.624;-64.282;2023-04-25T03:53:16;15.50;91.80
59973;DHT22;55298;-36.624;-64.282;2023-04-25T03:55:43;15.60;91.60
59973;DHT22;55298;-36.624;-64.282;2023-04-25T03:58:11;15.60;91.50
59973;DHT22;55298;-36.624;-64.282;2023-04-25T04:00:39;15.60;91.30
59973;DHT22;55298;-36.624;-64.282;2023-04-25T04:03:07;15.50;91.30
59973;DHT22;55298;-36.624;-64.282;2023-04-25T04:05:35;15.50;91.60
59973;DHT22;55298;-36.624;-64.282;2023-04-25T04:08:04;15.50;91.70
59973;DHT22;55298;-36.624;-64.282;2023-04-25T04:10:35;15.50;91.60
59973;DHT22;55298;-36.624;-64.282;2023-04-25T04:13:03;15.50;91.60
59973;DHT22;55298;-36.624;-64.282;2023-04-25T04:15:31;15.50;91.60
59973;DHT22;55298;-36.624;-64.282;2023-04-25T04:17:59;15.50;91.60
59973;DHT22;55298;-36.624;-64.282;2023-04-25T04:20:30;15.50;91.70
59973;DHT22;55298;-36.624;-64.282;2023-04-25T04:22:59;15.50;92.20
59973;DHT22;55298;-36.624;-64.282;2023-04-25T04:25:27;15.50;92.50
59973;DHT22;55298;-36.624;-64.282;2023-04-25T04:27:56;15.60;92.50
59973;DHT22;55298;-36.624;-64.282;2023-04-25T04:30:25;15.50;92.40
59973;DHT22;55298;-36.624;-64.282;2023-04-25T04:32:58;15.50;92.70
59973;DHT22;55298;-36.624;-64.282;2023-04-25T04:35:27;15.50;92.90
59973;DHT22;55298;-36.624;-64.282;2023-04-25T04:37:55;15.50;93.00
59973;DHT22;55298;-36.624;-64.282;2023-04-25T04:40:23;15.50;93.00
59973;DHT22;55298;-36.624;-64.282;2023-04-25T04:42:52;15.50;93.30
59973;DHT22;55298;-36.624;-64.282;2023-04-25T04:45:23;15.50;93.80
59973;DHT22;55298;-36.624;-64.282;2023-04-25T04:47:54;15.50;94.00
59973;DHT22;55298;-36.624;-64.282;2023-04-25T04:50:22;15.50;94.10
59973;DHT22;55298;-36.624;-64.282;2023-04-25T04:52:49;15.50;94.00
59973;DHT22;55298;-36.624;-64.282;2023-04-25T04:55:17;15.50;93.80
59973;DHT22;55298;-36.624;-64.282;2023-04-25T04:57:45;15.40;94.10
59973;DHT22;55298;-36.624;-64.282;2023-04-25T05:00:13;15.50;94.20
59973;DHT22;55298;-36.624;-64.282;2023-04-25T05:02:42;15.50;94.40
59973;DHT22;55298;-36.624;-64.282;2023-04-25T05:05:10;15.50;94.50
59973;DHT22;55298;-36.624;-64.282;2023-04-25T05:07:37;15.30;94.50
59973;DHT22;55298;-36.624;-64.282;2023-04-25T05:10:06;15.40;94.70
59973;DHT22;55298;-36.624;-64.282;2023-04-25T05:12:34;15.30;94.20
59973;DHT22;55298;-36.624;-64.282;2023-04-25T05:15:02;15.40;94.20
59973;DHT22;55298;-36.624;-64.282;2023-04-25T05:17:30;15.30;94.20
59973;DHT22;55298;-36.624;-64.282;2023-04-25T05:19:57;15.20;94.50
59973;DHT22;55298;-36.624;-64.282;2023-04-25T05:22:25;15.30;94.30
59973;DHT22;55298;-36.624;-64.282;2023-04-25T05:24:53;15.20;94.30
59973;DHT22;55298;-36.624;-64.282;2023-04-25T05:27:21;15.30;95.00
59973;DHT22;55298;-36.624;-64.282;2023-04-25T05:29:49;15.30;94.90
59973;DHT22;55298;-36.624;-64.282;2023-04-25T05:32:17;15.20;94.90
59973;DHT22;55298;-36.624;-64.282;2023-04-25T05:34:46;15.20;95.00
59973;DHT22;55298;-36.624;-64.282;2023-04-25T05:37:13;15.30;96.30
59973;DHT22;55298;-36.624;-64.282;2023-04-25T05:39:41;15.30;96.30
59973;DHT22;55298;-36.624;-64.282;2023-04-25T05:42:09;15.30;97.10
59973;DHT22;55298;-36.624;-64.282;2023-04-25T05:44:37;15.20;97.40
59973;DHT22;55298;-36.624;-64.282;2023-04-25T05:47:05;15.20;98.20
59973;DHT22;55298;-36.624;-64.282;2023-04-25T05:49:33;15.20;98.10
59973;DHT22;55298;-36.624;-64.282;2023-04-25T05:52:01;15.20;98.80
59973;DHT22;55298;-36.624;-64.282;2023-04-25T05:54:29;15.20;98.70
59973;DHT22;55298;-36.624;-64.282;2023-04-25T05:56:57;15.10;98.70
59973;DHT22;55298;-36.624;-64.282;2023-04-25T05:59:25;15.10;98.70
59973;DHT22;55298;-36.624;-64.282;2023-04-25T06:01:52;15.00;98.50
59973;DHT22;55298;-36.624;-64.282;2023-04-25T06:04:21;15.00;98.40
59973;DHT22;55298;-36.624;-64.282;2023-04-25T06:06:49;15.00;98.50
59973;DHT22;55298;-36.624;-64.282;2023-04-25T06:09:17;14.90;98.70
59973;DHT22;55298;-36.624;-64.282;2023-04-25T06:11:44;14.90;98.90
59973;DHT22;55298;-36.624;-64.282;2023-04-25T06:14:12;14.90;98.90
59973;DHT22;55298;-36.624;-64.282;2023-04-25T06:16:40;14.80;99.20
59973;DHT22;55298;-36.624;-64.282;2023-04-25T06:19:09;14.80;99.30
59973;DHT22;55298;-36.624;-64.282;2023-04-25T06:21:37;14.70;99.00
59973;DHT22;55298;-36.624;-64.282;2023-04-25T06:24:05;14.70;99.40
59973;DHT22;55298;-36.624;-64.282;2023-04-25T06:26:33;14.70;99.50
59973;DHT22;55298;-36.624;-64.282;2023-04-25T06:29:01;14.60;99.70
59973;DHT22;55298;-36.624;-64.282;2023-04-25T06:31:29;14.60;99.60
59973;DHT22;55298;-36.624;-64.282;2023-04-25T06:33:59;14.50;99.60
59973;DHT22;55298;-36.624;-64.282;2023-04-25T06:36:27;14.50;99.70
59973;DHT22;55298;-36.624;-64.282;2023-04-25T06:38:55;14.50;99.90
59973;DHT22;55298;-36.624;-64.282;2023-04-25T06:41:23;14.40;99.90
59973;DHT22;55298;-36.624;-64.282;2023-04-25T06:43:51;14.30;99.90
59973;DHT22;55298;-36.624;-64.282;2023-04-25T06:46:19;14.30;99.90
59973;DHT22;55298;-36.624;-64.282;2023-04-25T06:48:47;14.20;99.90
59973;DHT22;55298;-36.624;-64.282;2023-04-25T06:51:14;14.20;99.90
59973;DHT22;55298;-36.624;-64.282;2023-04-25T06:53:42;14.20;99.90
59973;DHT22;55298;-36.624;-64.282;2023-04-25T06:56:10;14.20;99.90
59973;DHT22;55298;-36.624;-64.282;2023-04-25T06:58:37;14.10;99.90
59973;DHT22;55298;-36.624;-64.282;2023-04-25T07:01:05;14.00;99.90
59973;DHT22;55298;-36.624;-64.282;2023-04-25T07:03:33;14.00;99.90
59973;DHT22;55298;-36.624;-64.282;2023-04-25T07:06:01;14.00;99.90
59973;DHT22;55298;-36.624;-64.282;2023-04-25T07:08:30;13.90;99.90
59973;DHT22;55298;-36.624;-64.282;2023-04-25T07:10:58;13.90;99.90
59973;DHT22;55298;-36.624;-64.282;2023-04-25T07:13:26;13.90;99.90
59973;DHT22;55298;-36.624;-64.282;2023-04-25T07:15:53;13.80;99.90
59973;DHT22;55298;-36.624;-64.282;2023-04-25T07:18:21;13.80;99.90
59973;DHT22;55298;-36.624;-64.282;2023-04-25T07:20:49;13.70;99.90
59973;DHT22;55298;-36.624;-64.282;2023-04-25T07:23:17;13.70;99.90
59973;DHT22;55298;-36.624;-64.282;2023-04-25T07:25:45;13.70;99.90
59973;DHT22;55298;-36.624;-64.282;2023-04-25T07:28:12;13.60;99.90
59973;DHT22;55298;-36.624;-64.282;2023-04-25T07:30:40;13.60;99.90
59973;DHT22;55298;-36.624;-64.282;2023-04-25T07:33:08;13.60;99.90
59973;DHT22;55298;-36.624;-64.282;2023-04-25T07:35:36;13.60;99.90
59973;DHT22;55298;-36.624;-64.282;2023-04-25T07:38:03;13.60;99.90
59973;DHT22;55298;-36.624;-64.282;2023-04-25T07:40:34;13.50;99.90
59973;DHT22;55298;-36.624;-64.282;2023-04-25T07:43:02;13.50;99.90
59973;DHT22;55298;-36.624;-64.282;2023-04-25T07:45:29;13.50;99.90
59973;DHT22;55298;-36.624;-64.282;2023-04-25T07:47:57;13.50;99.90
59973;DHT22;55298;-36.624;-64.282;2023-04-25T07:50:25;13.40;99.90
59973;DHT22;55298;-36.624;-64.282;2023-04-25T07:52:53;13.50;99.90
59973;DHT22;55298;-36.624;-64.282;2023-04-25T07:55:21;13.40;99.90
59973;DHT22;55298;-36.624;-64.282;2023-04-25T07:57:49;13.40;99.90
59973;DHT22;55298;-36.624;-64.282;2023-04-25T08:00:17;13.40;99.90
59973;DHT22;55298;-36.624;-64.282;2023-04-25T08:02:45;13.30;99.90
59973;DHT22;55298;-36.624;-64.282;2023-04-25T08:05:13;13.40;99.90
59973;DHT22;55298;-36.624;-64.282;2023-04-25T08:07:42;13.30;99.90
59973;DHT22;55298;-36.624;-64.282;2023-04-25T08:10:10;13.30;99.90
59973;DHT22;55298;-36.624;-64.282;2023-04-25T08:12:38;13.30;99.90
59973;DHT22;55298;-36.624;-64.282;2023-04-25T08:15:06;13.30;99.90
59973;DHT22;55298;-36.624;-64.282;2023-04-25T08:17:34;13.30;99.90
59973;DHT22;55298;-36.624;-64.282;2023-04-25T08:20:03;13.30;99.90
59973;DHT22;55298;-36.624;-64.282;2023-04-25T08:22:32;13.30;99.90
59973;DHT22;55298;-36.624;-64.282;2023-04-25T08:25:00;13.30;99.90
59973;DHT22;55298;-36.624;-64.282;2023-04-25T08:27:28;13.20;99.90
59973;DHT22;55298;-36.624;-64.282;2023-04-25T08:29:58;13.30;99.90
59973;DHT22;55298;-36.624;-64.282;2023-04-25T08:32:26;13.40;99.90
59973;DHT22;55298;-36.624;-64.282;2023-04-25T08:34:53;13.40;99.90
59973;DHT22;55298;-36.624;-64.282;2023-04-25T08:37:22;13.50;99.90
59973;DHT22;55298;-36.624;-64.282;2023-04-25T08:39:50;13.50;99.90
59973;DHT22;55298;-36.624;-64.282;2023-04-25T08:42:20;13.50;99.90
59973;DHT22;55298;-36.624;-64.282;2023-04-25T08:44:50;13.50;99.90
59973;DHT22;55298;-36.624;-64.282;2023-04-25T08:47:21;13.60;99.90
59973;DHT22;55298;-36.624;-64.282;2023-04-25T08:49:50;13.50;99.90
59973;DHT22;55298;-36.624;-64.282;2023-04-25T08:52:24;13.50;99.90
59973;DHT22;55298;-36.624;-64.282;2023-04-25T08:54:55;13.60;99.90
59973;DHT22;55298;-36.624;-64.282;2023-04-25T08:57:24;13.60;99.90
59973;DHT22;55298;-36.624;-64.282;2023-04-25T08:59:53;13.60;99.90
59973;DHT22;55298;-36.624;-64.282;2023-04-25T09:02:21;13.60;99.90
59973;DHT22;55298;-36.624;-64.282;2023-04-25T09:04:50;13.60;99.90
59973;DHT22;55298;-36.624;-64.282;2023-04-25T09:07:18;13.60;99.90
59973;DHT22;55298;-36.624;-64.282;2023-04-25T09:09:48;13.70;99.90
59973;DHT22;55298;-36.624;-64.282;2023-04-25T09:12:20;13.60;99.90
59973;DHT22;55298;-36.624;-64.282;2023-04-25T09:15:06;13.60;99.90
59973;DHT22;55298;-36.624;-64.282;2023-04-25T09:17:36;13.60;99.90
59973;DHT22;55298;-36.624;-64.282;2023-04-25T09:20:09;13.70;99.90
59973;DHT22;55298;-36.624;-64.282;2023-04-25T09:22:39;13.70;99.90
59973;DHT22;55298;-36.624;-64.282;2023-04-25T09:25:10;13.70;99.90
59973;DHT22;55298;-36.624;-64.282;2023-04-25T09:27:50;13.70;99.90
59973;DHT22;55298;-36.624;-64.282;2023-04-25T09:30:19;13.70;99.90
59973;DHT22;55298;-36.624;-64.282;2023-04-25T09:33:06;13.60;99.90
59973;DHT22;55298;-36.624;-64.282;2023-04-25T09:35:41;13.60;99.90
59973;DHT22;55298;-36.624;-64.282;2023-04-25T09:38:13;13.60;99.90
59973;DHT22;55298;-36.624;-64.282;2023-04-25T09:40:43;13.60;99.90
59973;DHT22;55298;-36.624;-64.282;2023-04-25T09:43:20;13.60;99.90
59973;DHT22;55298;-36.624;-64.282;2023-04-25T09:45:49;13.50;99.90
59973;DHT22;55298;-36.624;-64.282;2023-04-25T09:48:20;13.50;99.90
59973;DHT22;55298;-36.624;-64.282;2023-04-25T09:51:09;13.50;99.90
59973;DHT22;55298;-36.624;-64.282;2023-04-25T09:53:40;13.50;99.90
59973;DHT22;55298;-36.624;-64.282;2023-04-25T09:56:10;13.50;99.90
59973;DHT22;55298;-36.624;-64.282;2023-04-25T09:58:39;13.50;99.90
59973;DHT22;55298;-36.624;-64.282;2023-04-25T10:01:10;13.50;99.90
59973;DHT22;55298;-36.624;-64.282;2023-04-25T10:03:40;13.40;99.90
59973;DHT22;55298;-36.624;-64.282;2023-04-25T10:06:12;13.40;99.90
59973;DHT22;55298;-36.624;-64.282;2023-04-25T10:08:43;13.40;99.90
59973;DHT22;55298;-36.624;-64.282;2023-04-25T10:11:11;13.40;99.90
59973;DHT22;55298;-36.624;-64.282;2023-04-25T10:13:42;13.40;99.90
59973;DHT22;55298;-36.624;-64.282;2023-04-25T10:16:10;13.30;99.90
59973;DHT22;55298;-36.624;-64.282;2023-04-25T10:18:38;13.30;99.90
59973;DHT22;55298;-36.624;-64.282;2023-04-25T10:21:06;13.30;99.90
59973;DHT22;55298;-36.624;-64.282;2023-04-25T10:23:37;13.50;99.90
59973;DHT22;55298;-36.624;-64.282;2023-04-25T10:26:06;13.30;99.90
59973;DHT22;55298;-36.624;-64.282;2023-04-25T10:28:57;13.40;99.90
59973;DHT22;55298;-36.624;-64.282;2023-04-25T10:31:27;14.20;99.90
59973;DHT22;55298;-36.624;-64.282;2023-04-25T10:34:01;13.30;99.90
59973;DHT22;55298;-36.624;-64.282;2023-04-25T10:36:35;13.30;99.90
59973;DHT22;55298;-36.624;-64.282;2023-04-25T10:39:07;13.40;99.90
59973;DHT22;55298;-36.624;-64.282;2023-04-25T10:41:46;13.30;99.90
59973;DHT22;55298;-36.624;-64.282;2023-04-25T10:44:16;13.10;99.90
59973;DHT22;55298;-36.624;-64.282;2023-04-25T10:46:45;13.20;99.90
59973;DHT22;55298;-36.624;-64.282;2023-04-25T10:49:38;13.20;99.90
59973;DHT22;55298;-36.624;-64.282;2023-04-25T10:52:24;13.20;99.90
59973;DHT22;55298;-36.624;-64.282;2023-04-25T10:54:57;13.20;99.90
59973;DHT22;55298;-36.624;-64.282;2023-04-25T10:57:44;13.20;99.90
59973;DHT22;55298;-36.624;-64.282;2023-04-25T11:00:17;13.20;99.90
59973;DHT22;55298;-36.624;-64.282;2023-04-25T11:02:55;13.20;99.90
59973;DHT22;55298;-36.624;-64.282;2023-04-25T11:05:35;13.40;99.90
59973;DHT22;55298;-36.624;-64.282;2023-04-25T11:08:29;13.20;99.90
59973;DHT22;55298;-36.624;-64.282;2023-04-25T11:11:05;13.20;99.90
59973;DHT22;55298;-36.624;-64.282;2023-04-25T11:13:33;13.20;99.90
59973;DHT22;55298;-36.624;-64.282;2023-04-25T11:16:01;13.30;99.90
59973;DHT22;55298;-36.624;-64.282;2023-04-25T11:18:30;13.30;99.90
59973;DHT22;55298;-36.624;-64.282;2023-04-25T11:21:11;13.40;99.90
59973;DHT22;55298;-36.624;-64.282;2023-04-25T11:23:55;13.40;99.90
59973;DHT22;55298;-36.624;-64.282;2023-04-25T11:26:25;13.60;99.90
59973;DHT22;55298;-36.624;-64.282;2023-04-25T11:28:58;13.80;99.90
59973;DHT22;55298;-36.624;-64.282;2023-04-25T11:31:28;14.40;99.90
59973;DHT22;55298;-36.624;-64.282;2023-04-25T11:34:00;15.10;99.90
59973;DHT22;55298;-36.624;-64.282;2023-04-25T11:36:30;15.60;99.90
59973;DHT22;55298;-36.624;-64.282;2023-04-25T11:38:59;16.10;99.90
59973;DHT22;55298;-36.624;-64.282;2023-04-25T11:41:27;16.60;99.90
59973;DHT22;55298;-36.624;-64.282;2023-04-25T11:43:59;17.10;99.90
59973;DHT22;55298;-36.624;-64.282;2023-04-25T11:46:29;17.80;99.20
59973;DHT22;55298;-36.624;-64.282;2023-04-25T11:49:02;18.30;97.00
59973;DHT22;55298;-36.624;-64.282;2023-04-25T11:51:39;18.70;94.40
59973;DHT22;55298;-36.624;-64.282;2023-04-25T11:54:10;19.30;93.70
59973;DHT22;55298;-36.624;-64.282;2023-04-25T11:56:43;19.60;91.80
59973;DHT22;55298;-36.624;-64.282;2023-04-25T11:59:12;19.70;89.80
59973;DHT22;55298;-36.624;-64.282;2023-04-25T12:01:47;19.40;89.20
59973;DHT22;55298;-36.624;-64.282;2023-04-25T12:04:20;19.70;89.60
59973;DHT22;55298;-36.624;-64.282;2023-04-25T12:06:52;20.10;87.40
59973;DHT22;55298;-36.624;-64.282;2023-04-25T12:09:34;20.40;84.20
59973;DHT22;55298;-36.624;-64.282;2023-04-25T12:12:04;20.70;83.70
59973;DHT22;55298;-36.624;-64.282;2023-04-25T12:14:34;21.00;79.60
59973;DHT22;55298;-36.624;-64.282;2023-04-25T12:17:04;21.30;79.00
59973;DHT22;55298;-36.624;-64.282;2023-04-25T12:19:36;21.60;76.50
59973;DHT22;55298;-36.624;-64.282;2023-04-25T12:22:20;21.70;75.10
59973;DHT22;55298;-36.624;-64.282;2023-04-25T12:24:50;21.80;73.60
59973;DHT22;55298;-36.624;-64.282;2023-04-25T12:27:20;22.10;74.00
59973;DHT22;55298;-36.624;-64.282;2023-04-25T12:29:54;22.30;71.70
59973;DHT22;55298;-36.624;-64.282;2023-04-25T12:32:24;22.10;71.10
59973;DHT22;55298;-36.624;-64.282;2023-04-25T12:34:53;22.30;71.30
59973;DHT22;55298;-36.624;-64.282;2023-04-25T12:37:23;22.30;70.20
59973;DHT22;55298;-36.624;-64.282;2023-04-25T12:39:53;22.50;70.90
59973;DHT22;55298;-36.624;-64.282;2023-04-25T12:42:23;22.90;70.30
59973;DHT22;55298;-36.624;-64.282;2023-04-25T12:44:51;23.30;67.50
59973;DHT22;55298;-36.624;-64.282;2023-04-25T12:47:19;23.50;66.40
59973;DHT22;55298;-36.624;-64.282;2023-04-25T12:49:48;23.70;65.90
59973;DHT22;55298;-36.624;-64.282;2023-04-25T12:52:16;23.80;65.30
59973;DHT22;55298;-36.624;-64.282;2023-04-25T12:54:44;24.30;64.30
59973;DHT22;55298;-36.624;-64.282;2023-04-25T12:57:14;24.70;65.70
59973;DHT22;55298;-36.624;-64.282;2023-04-25T12:59:43;25.10;60.70
59973;DHT22;55298;-36.624;-64.282;2023-04-25T13:02:11;25.00;61.00
59973;DHT22;55298;-36.624;-64.282;2023-04-25T13:04:40;24.90;61.20
59973;DHT22;55298;-36.624;-64.282;2023-04-25T13:07:09;25.10;60.70
59973;DHT22;55298;-36.624;-64.282;2023-04-25T13:09:37;25.10;60.30
59973;DHT22;55298;-36.624;-64.282;2023-04-25T13:12:08;25.30;61.30
59973;DHT22;55298;-36.624;-64.282;2023-04-25T13:14:36;25.50;59.80
59973;DHT22;55298;-36.624;-64.282;2023-04-25T13:17:05;26.20;59.40
59973;DHT22;55298;-36.624;-64.282;2023-04-25T13:19:37;26.80;61.30
59973;DHT22;55298;-36.624;-64.282;2023-04-25T13:22:06;27.00;56.00
59973;DHT22;55298;-36.624;-64.282;2023-04-25T13:24:35;27.10;55.30
59973;DHT22;55298;-36.624;-64.282;2023-04-25T13:27:05;27.00;55.70
59973;DHT22;55298;-36.624;-64.282;2023-04-25T13:29:34;27.20;56.00
59973;DHT22;55298;-36.624;-64.282;2023-04-25T13:32:03;27.00;56.30
59973;DHT22;55298;-36.624;-64.282;2023-04-25T13:34:32;26.90;55.00
59973;DHT22;55298;-36.624;-64.282;2023-04-25T13:37:00;26.90;55.50
59973;DHT22;55298;-36.624;-64.282;2023-04-25T13:39:30;26.70;55.20
59973;DHT22;55298;-36.624;-64.282;2023-04-25T13:41:58;26.70;56.00
59973;DHT22;55298;-36.624;-64.282;2023-04-25T13:44:29;26.90;56.40
59973;DHT22;55298;-36.624;-64.282;2023-04-25T13:46:59;27.30;55.90
59973;DHT22;55298;-36.624;-64.282;2023-04-25T13:49:28;27.40;54.60
59973;DHT22;55298;-36.624;-64.282;2023-04-25T13:52:00;27.10;55.20
59973;DHT22;55298;-36.624;-64.282;2023-04-25T13:54:28;26.60;55.80
59973;DHT22;55298;-36.624;-64.282;2023-04-25T13:56:56;26.20;56.80
59973;DHT22;55298;-36.624;-64.282;2023-04-25T13:59:26;26.20;57.30
59973;DHT22;55298;-36.624;-64.282;2023-04-25T14:01:55;26.50;57.70
59973;DHT22;55298;-36.624;-64.282;2023-04-25T14:04:27;27.00;56.40
59973;DHT22;55298;-36.624;-64.282;2023-04-25T14:06:55;27.10;54.70
59973;DHT22;55298;-36.624;-64.282;2023-04-25T14:09:23;27.10;54.90
59973;DHT22;55298;-36.624;-64.282;2023-04-25T14:11:55;27.00;56.40
59973;DHT22;55298;-36.624;-64.282;2023-04-25T14:14:23;26.90;55.10
59973;DHT22;55298;-36.624;-64.282;2023-04-25T14:16:52;27.00;55.90
59973;DHT22;55298;-36.624;-64.282;2023-04-25T14:19:22;27.40;55.60
59973;DHT22;55298;-36.624;-64.282;2023-04-25T14:21:51;27.70;54.70
59973;DHT22;55298;-36.624;-64.282;2023-04-25T14:24:23;27.80;52.60
59973;DHT22;55298;-36.624;-64.282;2023-04-25T14:26:51;28.00;53.40
59973;DHT22;55298;-36.624;-64.282;2023-04-25T14:29:19;28.30;52.70
59973;DHT22;55298;-36.624;-64.282;2023-04-25T14:31:50;28.20;51.50
59973;DHT22;55298;-36.624;-64.282;2023-04-25T14:34:19;28.10;51.30
59973;DHT22;55298;-36.624;-64.282;2023-04-25T14:36:55;28.30;51.50
59973;DHT22;55298;-36.624;-64.282;2023-04-25T14:39:23;28.10;50.90
59973;DHT22;55298;-36.624;-64.282;2023-04-25T14:41:51;28.00;51.50
59973;DHT22;55298;-36.624;-64.282;2023-04-25T14:44:34;27.90;52.50
59973;DHT22;55298;-36.624;-64.282;2023-04-25T14:47:02;28.10;52.00
59973;DHT22;55298;-36.624;-64.282;2023-04-25T14:49:31;28.20;51.60
59973;DHT22;55298;-36.624;-64.282;2023-04-25T14:51:59;28.10;51.90
59973;DHT22;55298;-36.624;-64.282;2023-04-25T14:54:30;28.20;51.50
59973;DHT22;55298;-36.624;-64.282;2023-04-25T14:56:59;28.20;51.80
59973;DHT22;55298;-36.624;-64.282;2023-04-25T14:59:28;27.80;51.10
59973;DHT22;55298;-36.624;-64.282;2023-04-25T15:01:58;27.30;51.80